createdAt,value
2018-04-25T00:01:20.076Z,16.40
2018-04-25T00:03:48.384Z,16.40
2018-04-25T00:06:16.695Z,16.30
2018-04-25T00:08:45.818Z,16.10
2018-04-25T00:11:14.104Z,16.10
2018-04-25T00:13:43.172Z,15.90
2018-04-25T00:16:11.463Z,16.00
2018-04-25T00:18:40.531Z,15.60
2018-04-25T00:21:08.907Z,15.70
2018-04-25T00:23:37.450Z,15.70
2018-04-25T00:26:05.763Z,15.70
2018-04-25T00:28:34.054Z,15.60
2018-04-25T00:31:02.347Z,15.50
2018-04-25T00:33:31.434Z,15.60
2018-04-25T00:36:00.486Z,15.60
2018-04-25T00:38:28.768Z,15.60
2018-04-25T00:40:57.075Z,15.50
2018-04-25T00:43:26.146Z,15.30
2018-04-25T00:45:54.502Z,15.30
2018-04-25T00:48:22.803Z,15.20
2018-04-25T00:50:51.107Z,15.10
2018-04-25T00:53:20.177Z,15.10
2018-04-25T00:55:48.468Z,15.00
2018-04-25T00:58:17.817Z,15.20
2018-04-25T01:00:46.108Z,15.20
2018-04-25T01:03:14.593Z,15.30
2018-04-25T01:05:43.691Z,15.20
2018-04-25T01:08:11.981Z,15.20
2018-04-25T01:10:40.277Z,15.00
2018-04-25T01:13:09.624Z,14.80
2018-04-25T01:15:37.923Z,14.80
2018-04-25T01:18:06.215Z,14.80
2018-04-25T01:20:35.305Z,14.90
2018-04-25T01:23:08.185Z,14.90
2018-04-25T01:25:37.605Z,14.90
2018-04-25T01:28:09.166Z,14.90
2018-04-25T01:30:40.805Z,14.90
2018-04-25T01:33:09.222Z,14.90
2018-04-25T01:35:37.492Z,15.00
2018-04-25T01:38:06.516Z,14.90
2018-04-25T01:40:34.810Z,14.90
2018-04-25T01:43:08.879Z,14.80
2018-04-25T01:45:37.312Z,14.70
2018-04-25T01:48:11.434Z,14.60
2018-04-25T01:50:40.495Z,14.60
2018-04-25T01:53:20.623Z,14.60
2018-04-25T01:56:00.591Z,14.60
2018-04-25T01:58:40.680Z,14.70
2018-04-25T02:01:20.119Z,14.70
2018-04-25T02:04:00.713Z,14.70
2018-04-25T02:06:28.997Z,14.70
2018-04-25T02:08:57.288Z,14.80
2018-04-25T02:11:25.590Z,14.80
2018-04-25T02:13:54.105Z,14.80
2018-04-25T02:16:22.404Z,14.70
2018-04-25T02:18:50.709Z,14.70
2018-04-25T02:21:19.011Z,14.70
2018-04-25T02:23:48.084Z,14.50
2018-04-25T02:26:16.395Z,14.40
2018-04-25T02:28:44.686Z,14.50
2018-04-25T02:31:13.235Z,14.50
2018-04-25T02:33:42.287Z,14.60
2018-04-25T02:36:10.588Z,14.50
2018-04-25T02:38:38.912Z,14.60
2018-04-25T02:41:07.217Z,14.70
2018-04-25T02:43:35.530Z,14.70
2018-04-25T02:46:04.667Z,14.70
2018-04-25T02:48:33.445Z,14.70
2018-04-25T02:51:01.752Z,14.70
2018-04-25T02:53:30.059Z,14.80
2018-04-25T02:55:59.118Z,14.80
2018-04-25T02:58:27.443Z,14.80
2018-04-25T03:00:55.740Z,14.80
2018-04-25T03:03:24.053Z,14.80
2018-04-25T03:05:52.419Z,14.80
2018-04-25T03:08:20.738Z,14.80
2018-04-25T03:10:49.788Z,14.80
2018-04-25T03:13:18.243Z,14.70
2018-04-25T03:15:46.519Z,14.80
2018-04-25T03:18:14.823Z,14.90
2018-04-25T03:20:43.111Z,14.90
2018-04-25T03:23:11.420Z,14.90
2018-04-25T03:25:40.070Z,14.90
2018-04-25T03:28:08.370Z,14.90
2018-04-25T03:30:37.436Z,14.70
2018-04-25T03:33:05.747Z,14.70
2018-04-25T03:35:34.807Z,14.70
2018-04-25T03:38:03.101Z,14.70
2018-04-25T03:40:32.175Z,14.60
2018-04-25T03:43:00.468Z,14.60
2018-04-25T03:45:29.065Z,14.50
2018-04-25T03:47:57.374Z,14.50
2018-04-25T03:50:25.911Z,14.50
2018-04-25T03:52:54.192Z,14.50
2018-04-25T03:55:23.238Z,14.60
2018-04-25T03:57:51.565Z,14.60
2018-04-25T04:00:20.621Z,14.60
2018-04-25T04:02:48.946Z,14.60
2018-04-25T04:05:17.239Z,14.50
2018-04-25T04:07:45.551Z,14.60
2018-04-25T04:10:13.840Z,14.70
2018-04-25T04:12:42.151Z,14.50
2018-04-25T04:15:10.441Z,14.40
2018-04-25T04:17:38.726Z,14.30
2018-04-25T04:20:07.024Z,14.20
2018-04-25T04:22:35.322Z,14.20
2018-04-25T04:25:03.655Z,14.20
2018-04-25T04:27:32.268Z,14.00
2018-04-25T04:30:00.568Z,14.00
2018-04-25T04:32:29.632Z,13.90
2018-04-25T04:34:57.931Z,13.90
2018-04-25T04:37:26.987Z,13.90
2018-04-25T04:39:55.280Z,13.90
2018-04-25T04:42:23.581Z,13.90
2018-04-25T04:44:52.637Z,13.90
2018-04-25T04:47:20.955Z,13.90
2018-04-25T04:49:50.012Z,13.90
2018-04-25T04:52:18.289Z,13.90
2018-04-25T04:54:46.598Z,13.90
2018-04-25T04:57:15.671Z,14.10
2018-04-25T04:59:44.018Z,14.10
2018-04-25T05:02:13.030Z,14.30
2018-04-25T05:04:41.340Z,14.20
2018-04-25T05:07:10.380Z,14.40
2018-04-25T05:09:38.712Z,14.40
2018-04-25T05:12:07.755Z,14.70
2018-04-25T05:14:36.065Z,14.60
2018-04-25T05:17:05.311Z,14.80
2018-04-25T05:19:33.633Z,14.70
2018-04-25T05:22:02.034Z,14.80
2018-04-25T05:24:30.437Z,14.80
2018-04-25T05:26:59.441Z,15.10
2018-04-25T05:29:27.730Z,15.10
2018-04-25T05:31:56.894Z,15.40
2018-04-25T05:34:25.111Z,15.30
2018-04-25T05:36:53.429Z,15.50
2018-04-25T05:39:21.753Z,15.60
2018-04-25T05:41:50.878Z,16.10
2018-04-25T05:44:19.952Z,16.30
2018-04-25T05:46:48.253Z,16.30
2018-04-25T05:49:16.662Z,16.50
2018-04-25T05:51:45.042Z,16.60
2018-04-25T05:54:13.280Z,16.70
2018-04-25T05:56:41.839Z,16.80
2018-04-25T05:59:10.132Z,17.00
2018-04-25T06:01:39.188Z,17.10
2018-04-25T06:04:07.788Z,17.10
2018-04-25T06:06:36.839Z,17.20
2018-04-25T06:09:05.731Z,17.20
2018-04-25T06:11:34.043Z,17.30
2018-04-25T06:14:02.494Z,17.40
2018-04-25T06:16:30.790Z,17.50
2018-04-25T06:18:59.087Z,17.50
2018-04-25T06:21:28.164Z,17.60
2018-04-25T06:23:56.448Z,17.50
2018-04-25T06:26:25.545Z,17.70
2018-04-25T06:28:54.600Z,17.80
2018-04-25T06:31:22.934Z,17.80
2018-04-25T06:33:51.231Z,17.80
2018-04-25T06:36:19.831Z,17.80
2018-04-25T06:38:48.132Z,17.80
2018-04-25T06:41:16.424Z,17.80
2018-04-25T06:43:45.518Z,18.00
2018-04-25T06:46:14.574Z,18.00
2018-04-25T06:48:42.881Z,18.00
2018-04-25T06:51:11.195Z,18.10
2018-04-25T06:53:39.494Z,18.30
2018-04-25T06:56:07.809Z,18.40
2018-04-25T06:58:36.148Z,18.50
2018-04-25T07:01:04.446Z,18.50
2018-04-25T07:03:32.755Z,18.50
2018-04-25T07:06:01.809Z,18.40
2018-04-25T07:08:30.503Z,18.40
2018-04-25T07:10:58.805Z,18.50
2018-04-25T07:13:27.898Z,18.90
2018-04-25T07:15:57.039Z,19.00
2018-04-25T07:18:25.610Z,19.00
2018-04-25T07:20:53.903Z,19.20
2018-04-25T07:23:22.191Z,19.30
2018-04-25T07:25:50.519Z,19.40
2018-04-25T07:28:18.836Z,19.40
2018-04-25T07:30:47.166Z,19.50
2018-04-25T07:33:15.467Z,19.80
2018-04-25T07:35:44.010Z,19.90
2018-04-25T07:38:13.084Z,19.80
2018-04-25T07:40:41.383Z,19.80
2018-04-25T07:43:10.456Z,20.00
2018-04-25T07:45:39.532Z,20.00
2018-04-25T07:48:08.639Z,20.10
2018-04-25T07:50:36.938Z,20.10
2018-04-25T07:53:06.259Z,20.10
2018-04-25T07:55:34.539Z,20.10
2018-04-25T07:58:02.831Z,19.90
2018-04-25T08:00:31.163Z,19.80
2018-04-25T08:03:00.233Z,19.90
2018-04-25T08:05:29.312Z,20.00
2018-04-25T08:07:57.602Z,20.00
2018-04-25T08:10:26.705Z,20.00
2018-04-25T08:13:07.771Z,19.70
2018-04-25T08:15:47.985Z,19.70
2018-04-25T08:18:28.695Z,19.60
2018-04-25T08:24:13.064Z,19.50
2018-04-25T08:26:41.446Z,19.50
2018-04-25T08:29:10.016Z,19.50
2018-04-25T08:31:38.319Z,19.50
2018-04-25T08:34:07.376Z,19.70
2018-04-25T08:36:35.682Z,19.70
2018-04-25T08:39:05.622Z,19.70
2018-04-25T08:41:35.110Z,19.70
2018-04-25T08:44:03.420Z,19.60
2018-04-25T08:46:31.728Z,19.70
2018-04-25T08:49:00.835Z,19.50
2018-04-25T08:51:29.886Z,19.70
2018-04-25T08:53:58.219Z,19.70
2018-04-25T08:56:27.273Z,20.00
2018-04-25T08:58:55.599Z,20.00
2018-04-25T09:01:24.669Z,20.50
2018-04-25T09:03:53.236Z,20.40
2018-04-25T09:06:21.574Z,20.50
2018-04-25T09:08:49.868Z,20.60
2018-04-25T09:11:18.176Z,20.80
2018-04-25T09:13:47.261Z,21.40
2018-04-25T09:16:15.571Z,21.30
2018-04-25T09:18:43.899Z,21.70
2018-04-25T09:21:12.220Z,21.80
2018-04-25T09:23:41.287Z,21.90
2018-04-25T09:26:09.598Z,21.80
2018-04-25T09:28:37.891Z,21.90
2018-04-25T09:31:06.362Z,21.90
2018-04-25T09:33:34.629Z,21.90
2018-04-25T09:36:02.935Z,22.00
2018-04-25T09:38:31.255Z,22.10
2018-04-25T09:41:00.637Z,21.80
2018-04-25T09:43:28.998Z,21.80
2018-04-25T09:45:57.300Z,21.80
2018-04-25T09:48:25.591Z,21.90
2018-04-25T09:50:54.658Z,21.80
2018-04-25T09:53:23.731Z,21.80
2018-04-25T09:55:52.024Z,21.90
2018-04-25T09:58:21.083Z,22.10
2018-04-25T10:00:55.134Z,22.10
2018-04-25T10:03:23.685Z,22.20
2018-04-25T10:05:51.999Z,22.30
2018-04-25T10:08:20.315Z,22.20
2018-04-25T10:10:48.614Z,22.30
2018-04-25T10:13:16.954Z,22.40
2018-04-25T10:15:46.363Z,22.60
2018-04-25T10:18:15.845Z,22.40
2018-04-25T10:23:19.659Z,22.20
2018-04-25T10:25:48.746Z,22.20
2018-04-25T10:28:17.038Z,22.20
2018-04-25T10:30:46.125Z,22.40
2018-04-25T10:33:15.184Z,22.60
2018-04-25T10:35:43.500Z,22.50
2018-04-25T10:38:12.564Z,22.60
2018-04-25T10:40:41.239Z,22.60
2018-04-25T10:43:09.617Z,22.70
2018-04-25T10:45:38.709Z,22.90
2018-04-25T10:48:07.018Z,22.90
2018-04-25T10:50:36.075Z,23.30
2018-04-25T10:53:04.529Z,23.30
2018-04-25T10:55:32.823Z,23.20
2018-04-25T10:58:01.119Z,22.90
2018-04-25T11:00:30.181Z,22.50
2018-04-25T11:02:58.787Z,22.50
2018-04-25T11:05:27.098Z,22.30
2018-04-25T11:07:56.176Z,22.00
2018-04-25T11:10:24.484Z,22.00
2018-04-25T11:12:52.781Z,21.80
2018-04-25T11:15:21.083Z,21.70
2018-04-25T11:17:49.474Z,21.80
2018-04-25T11:20:18.147Z,21.70
2018-04-25T11:22:47.125Z,21.80
2018-04-25T11:25:16.191Z,21.80
2018-04-25T11:27:46.125Z,21.80
2018-04-25T11:30:20.359Z,21.80
2018-04-25T11:32:48.655Z,21.80
2018-04-25T11:35:17.716Z,21.80
2018-04-25T11:37:46.027Z,21.80
2018-04-25T11:40:15.365Z,21.70
2018-04-25T11:42:43.652Z,21.70
2018-04-25T11:45:11.936Z,21.60
2018-04-25T11:47:40.246Z,21.50
2018-04-25T11:50:08.517Z,21.30
2018-04-25T11:52:37.584Z,21.30
2018-04-25T11:55:05.873Z,21.30
2018-04-25T11:57:34.197Z,21.40
2018-04-25T12:00:03.271Z,21.50
2018-04-25T12:02:32.353Z,21.30
2018-04-25T12:05:00.705Z,21.30
2018-04-25T12:07:29.254Z,21.60
2018-04-25T12:09:57.553Z,21.90
2018-04-25T12:12:25.836Z,22.10
2018-04-25T12:14:54.140Z,22.20
2018-04-25T12:17:23.327Z,22.80
2018-04-25T12:19:51.619Z,22.80
2018-04-25T12:22:20.674Z,23.20
2018-04-25T12:24:49.000Z,23.20
2018-04-25T12:27:18.120Z,23.40
2018-04-25T12:29:46.425Z,23.30
2018-04-25T12:32:14.724Z,23.10
2018-04-25T12:34:43.054Z,22.50
2018-04-25T12:37:11.621Z,22.50
2018-04-25T12:39:40.687Z,22.20
2018-04-25T12:42:09.771Z,22.20
2018-04-25T12:44:38.047Z,22.20
2018-04-25T12:47:07.233Z,22.00
2018-04-25T12:49:35.588Z,21.90
2018-04-25T12:52:03.943Z,21.90
2018-04-25T12:54:32.246Z,21.90
2018-04-25T12:57:00.563Z,21.90
2018-04-25T12:59:29.616Z,22.10
2018-04-25T13:01:57.905Z,22.00
2018-04-25T13:04:26.192Z,22.00
2018-04-25T13:06:55.265Z,21.90
2018-04-25T13:09:23.556Z,21.90
2018-04-25T13:11:51.864Z,21.90
2018-04-25T13:14:20.499Z,22.00
2018-04-25T13:16:49.839Z,21.90
2018-04-25T13:19:18.876Z,21.70
2018-04-25T13:21:47.169Z,21.70
2018-04-25T13:24:15.457Z,21.70
2018-04-25T13:26:43.776Z,21.70
2018-04-25T13:29:12.065Z,21.70
2018-04-25T13:31:40.348Z,21.70
2018-04-25T13:34:08.658Z,21.70
2018-04-25T13:36:36.956Z,21.60
2018-04-25T13:39:05.993Z,21.50
2018-04-25T13:41:35.072Z,21.40
2018-04-25T13:44:03.388Z,21.40
2018-04-25T13:46:31.663Z,21.40
2018-04-25T13:49:00.736Z,21.50
2018-04-25T13:51:29.036Z,21.40
2018-04-25T13:53:57.618Z,21.50
2018-04-25T13:56:26.030Z,21.70
2018-04-25T13:58:55.193Z,22.00
2018-04-25T14:01:24.255Z,21.80
2018-04-25T14:03:52.547Z,21.80
2018-04-25T14:06:20.864Z,21.60
2018-04-25T14:08:49.931Z,21.60
2018-04-25T14:11:18.277Z,21.60
2018-04-25T14:13:46.720Z,21.60
2018-04-25T14:16:15.149Z,21.50
2018-04-25T14:18:43.421Z,21.60
2018-04-25T14:21:11.730Z,21.70
2018-04-25T14:23:40.260Z,21.80
2018-04-25T14:26:08.540Z,22.00
2018-04-25T14:28:37.252Z,22.00
2018-04-25T14:31:05.540Z,22.10
2018-04-25T14:33:33.839Z,22.20
2018-04-25T14:36:02.907Z,21.90
2018-04-25T14:38:31.196Z,21.90
2018-04-25T14:41:00.274Z,22.10
2018-04-25T14:43:28.654Z,22.10
2018-04-25T14:45:57.939Z,21.80
2018-04-25T14:48:26.327Z,21.80
2018-04-25T14:50:54.644Z,21.80
2018-04-25T14:53:22.931Z,21.80
2018-04-25T14:55:51.372Z,21.90
2018-04-25T14:58:19.943Z,21.70
2018-04-25T15:00:48.255Z,21.60
2018-04-25T15:03:17.598Z,21.70
2018-04-25T15:05:45.881Z,21.70
2018-04-25T15:08:14.963Z,21.60
2018-04-25T15:10:43.523Z,21.60
2018-04-25T15:13:11.820Z,21.60
2018-04-25T15:15:40.861Z,21.60
2018-04-25T15:18:09.164Z,21.50
2018-04-25T15:20:37.479Z,21.60
2018-04-25T15:23:06.539Z,21.50
2018-04-25T15:25:34.827Z,21.50
2018-04-25T15:28:04.132Z,21.50
2018-04-25T15:30:32.436Z,21.50
2018-04-25T15:33:01.499Z,21.70
2018-04-25T15:35:29.801Z,21.70
2018-04-25T15:37:58.896Z,22.00
2018-04-25T15:40:27.159Z,22.00
2018-04-25T15:42:55.443Z,22.00
2018-04-25T15:45:24.547Z,22.00
2018-04-25T15:47:52.855Z,22.00
2018-04-25T15:50:21.164Z,21.90
2018-04-25T15:52:49.469Z,21.70
2018-04-25T15:55:17.802Z,21.40
2018-04-25T15:58:00.697Z,21.20
2018-04-25T16:00:36.014Z,21.10
2018-04-25T16:03:17.777Z,21.10
2018-04-25T16:05:47.228Z,21.10
2018-04-25T16:08:15.506Z,21.10
2018-04-25T16:10:43.798Z,21.10
2018-04-25T16:13:12.118Z,21.00
2018-04-25T16:15:41.282Z,20.80
2018-04-25T16:18:09.773Z,20.70
2018-04-25T16:20:38.065Z,20.80
2018-04-25T16:23:06.371Z,20.80
2018-04-25T16:25:34.653Z,20.80
2018-04-25T16:28:03.184Z,20.80
2018-04-25T16:30:32.266Z,20.70
2018-04-25T16:33:00.593Z,20.70
2018-04-25T16:35:30.609Z,20.70
2018-04-25T16:37:59.155Z,20.70
2018-04-25T16:40:27.483Z,20.70
2018-04-25T16:42:55.802Z,20.80
2018-04-25T16:45:24.136Z,21.00
2018-04-25T16:47:52.795Z,21.20
2018-04-25T16:50:21.142Z,21.10
2018-04-25T16:52:49.443Z,21.00
2018-04-25T16:55:18.522Z,21.00
2018-04-25T16:57:47.591Z,21.00
2018-04-25T17:00:15.916Z,21.00
2018-04-25T17:02:44.980Z,21.20
2018-04-25T17:05:14.082Z,21.10
2018-04-25T17:07:43.182Z,20.90
2018-04-25T17:10:12.257Z,20.80
2018-04-25T17:12:40.573Z,20.80
2018-04-25T17:15:14.951Z,20.70
2018-04-25T17:17:49.370Z,20.80
2018-04-25T17:20:23.812Z,21.00
2018-04-25T17:22:58.206Z,21.00
2018-04-25T17:25:32.519Z,21.00
2018-04-25T17:28:06.793Z,20.90
2018-04-25T17:30:35.111Z,20.90
2018-04-25T17:33:03.384Z,20.90
2018-04-25T17:35:31.673Z,20.90
2018-04-25T17:37:59.992Z,20.90
2018-04-25T17:40:28.362Z,20.90
2018-04-25T17:42:57.007Z,20.80
2018-04-25T17:45:26.070Z,20.80
2018-04-25T17:47:55.240Z,20.80
2018-04-25T17:50:23.568Z,20.80
2018-04-25T17:52:52.629Z,20.70
2018-04-25T17:55:20.947Z,20.70
2018-04-25T17:57:50.005Z,20.60
2018-04-25T18:00:18.307Z,20.60
2018-04-25T18:02:46.678Z,20.50
2018-04-25T18:05:21.037Z,20.50
2018-04-25T18:07:55.310Z,20.60
2018-04-25T18:10:29.624Z,20.60
2018-04-25T18:13:04.993Z,20.50
2018-04-25T18:15:39.468Z,20.50
2018-04-25T18:18:13.772Z,20.50
2018-04-25T18:20:48.104Z,20.60
2018-04-25T18:23:22.636Z,20.60
2018-04-25T18:25:57.676Z,20.40
2018-04-25T18:28:32.379Z,20.40
2018-04-25T18:31:06.717Z,20.30
2018-04-25T18:33:41.333Z,20.30
2018-04-25T18:36:15.538Z,20.20
2018-04-25T18:38:49.969Z,20.30
2018-04-25T18:41:24.378Z,20.30
2018-04-25T18:43:59.037Z,20.20
2018-04-25T18:46:34.063Z,19.90
2018-04-25T18:49:08.615Z,19.90
2018-04-25T18:51:42.902Z,19.80
2018-04-25T18:54:18.233Z,19.60
2018-04-25T18:56:53.259Z,19.50
2018-04-25T18:59:27.573Z,19.40
2018-04-25T19:02:01.985Z,19.40
2018-04-25T19:04:36.181Z,19.30
2018-04-25T19:07:10.429Z,19.20
2018-04-25T19:09:44.841Z,19.10
2018-04-25T19:12:20.000Z,19.10
2018-04-25T19:14:54.203Z,19.10
2018-04-25T19:17:28.484Z,19.10
2018-04-25T19:20:02.743Z,19.00
2018-04-25T19:25:17.737Z,18.90
2018-04-25T19:27:52.201Z,18.90
2018-04-25T19:30:27.253Z,18.90
2018-04-25T19:33:01.587Z,18.90
2018-04-25T19:35:36.184Z,18.80
2018-04-25T19:38:10.698Z,18.80
2018-04-25T19:40:45.055Z,18.80
2018-04-25T19:43:19.368Z,18.70
2018-04-25T19:45:53.491Z,18.70
2018-04-25T19:48:27.664Z,18.70
2018-04-25T19:51:01.826Z,18.70
2018-04-25T19:53:35.965Z,18.80
2018-04-25T19:56:10.102Z,18.70
2018-04-25T19:58:45.343Z,18.70
2018-04-25T20:01:19.759Z,18.60
2018-04-25T20:03:54.780Z,18.70
2018-04-25T20:06:29.232Z,18.70
2018-04-25T20:09:04.255Z,18.80
2018-04-25T20:11:39.374Z,18.70
2018-04-25T20:14:13.796Z,18.70
2018-04-25T20:16:48.078Z,18.70
2018-04-25T20:19:22.611Z,18.80
2018-04-25T20:21:56.846Z,18.90
2018-04-25T20:24:31.192Z,18.80
2018-04-25T20:27:05.462Z,18.90
2018-04-25T20:29:39.956Z,18.80
2018-04-25T20:32:14.945Z,18.40
2018-04-25T20:34:49.387Z,18.40
2018-04-25T20:37:23.603Z,18.50
2018-04-25T20:39:58.617Z,18.50
2018-04-25T20:42:32.837Z,18.50
2018-04-25T20:45:07.263Z,18.40
2018-04-25T20:47:41.543Z,18.40
2018-04-25T20:50:15.791Z,18.50
2018-04-25T20:52:50.211Z,18.50
2018-04-25T20:55:24.459Z,18.50
2018-04-25T20:57:58.924Z,18.30
2018-04-25T21:00:33.236Z,18.30
2018-04-25T21:03:07.689Z,18.20
2018-04-25T21:05:41.910Z,18.10
2018-04-25T21:08:16.096Z,18.20
2018-04-25T21:10:50.325Z,18.30
2018-04-25T21:13:24.985Z,18.20
2018-04-25T21:15:59.226Z,18.00
2018-04-25T21:18:33.575Z,17.90
2018-04-25T21:21:08.575Z,17.80
2018-04-25T21:23:42.896Z,17.70
2018-04-25T21:26:17.115Z,17.60
2018-04-25T21:28:51.634Z,17.60
2018-04-25T21:31:26.034Z,17.60
2018-04-25T21:34:00.504Z,17.60
2018-04-25T21:36:34.782Z,17.60
2018-04-25T21:39:09.305Z,17.60
2018-04-25T21:41:43.726Z,17.60
2018-04-25T21:44:17.942Z,17.60
2018-04-25T21:46:52.117Z,17.60
2018-04-25T21:49:26.779Z,17.50
2018-04-25T21:52:01.071Z,17.60
2018-04-25T21:54:36.362Z,17.50
2018-04-25T21:57:11.604Z,17.40
2018-04-25T21:59:45.979Z,17.40
2018-04-25T22:02:20.947Z,17.40
2018-04-25T22:04:55.243Z,17.40
2018-04-25T22:07:29.636Z,17.30
2018-04-25T22:10:03.856Z,17.30
2018-04-25T22:12:38.151Z,17.20
2018-04-25T22:15:13.787Z,17.20
2018-04-25T22:17:48.829Z,17.20
2018-04-25T22:20:24.045Z,17.20
2018-04-25T22:22:58.768Z,17.20
2018-04-25T22:25:33.139Z,17.20
2018-04-25T22:28:07.691Z,17.20
2018-04-25T22:30:41.952Z,17.20
2018-04-25T22:33:16.419Z,17.20
2018-04-25T22:35:50.656Z,17.20
2018-04-25T22:38:25.655Z,17.20
2018-04-25T22:41:00.179Z,17.10
2018-04-25T22:43:34.425Z,17.10
2018-04-25T22:46:08.633Z,17.00
2018-04-25T22:48:43.022Z,17.00
2018-04-25T22:51:17.452Z,17.10
2018-04-25T22:53:51.888Z,17.10
2018-04-25T22:56:26.321Z,17.10
2018-04-25T22:59:01.319Z,16.90
2018-04-25T23:01:36.056Z,16.90
2018-04-25T23:04:11.079Z,16.90
2018-04-25T23:06:45.510Z,16.90
2018-04-25T23:09:20.543Z,16.80
2018-04-25T23:11:55.282Z,16.80
2018-04-25T23:14:30.305Z,16.80
2018-04-25T23:17:04.920Z,16.80
2018-04-25T23:19:39.973Z,16.80
2018-04-25T23:22:14.353Z,16.70
2018-04-25T23:24:49.399Z,16.70
2018-04-25T23:27:23.700Z,16.70
2018-04-25T23:29:58.194Z,16.80
2018-04-25T23:32:32.652Z,16.90
2018-04-25T23:35:06.904Z,16.90
2018-04-25T23:37:44.221Z,16.90
2018-04-25T23:40:18.551Z,16.80
2018-04-25T23:42:52.892Z,16.70
2018-04-25T23:45:27.155Z,16.70
2018-04-25T23:48:02.250Z,16.70
2018-04-25T23:50:37.251Z,16.80
2018-04-25T23:53:11.503Z,16.70
2018-04-25T23:55:46.464Z,16.70
2018-04-25T23:58:20.815Z,16.60
